sensor_id;sensor_type;location;lat;lon;timestamp;P1;durP1;ratioP1;P2;durP2;ratioP2
42110;SDS011;27766;52.174;5.456;2023-06-01T00:00:24;7.53;;;4.50;;
42110;SDS011;27766;52.174;5.456;2023-06-01T00:02:51;8.35;;;4.68;;
42110;SDS011;27766;52.174;5.456;2023-06-01T00:05:19;8.35;;;5.13;;
42110;SDS011;27766;52.174;5.456;2023-06-01T00:07:46;7.45;;;4.28;;
42110;SDS011;27766;52.174;5.456;2023-06-01T00:10:14;10.07;;;5.43;;
42110;SDS011;27766;52.174;5.456;2023-06-01T00:12:41;8.63;;;4.88;;
42110;SDS011;27766;52.174;5.456;2023-06-01T00:15:09;8.40;;;5.00;;
42110;SDS011;27766;52.174;5.456;2023-06-01T00:17:37;9.40;;;5.18;;
42110;SDS011;27766;52.174;5.456;2023-06-01T00:20:04;7.53;;;5.15;;
42110;SDS011;27766;52.174;5.456;2023-06-01T00:22:35;13.05;;;5.07;;
42110;SDS011;27766;52.174;5.456;2023-06-01T00:25:06;8.85;;;4.93;;
42110;SDS011;27766;52.174;5.456;2023-06-01T00:27:34;10.88;;;5.00;;
42110;SDS011;27766;52.174;5.456;2023-06-01T00:30:02;12.40;;;4.85;;
42110;SDS011;27766;52.174;5.456;2023-06-01T00:32:30;11.30;;;4.50;;
42110;SDS011;27766;52.174;5.456;2023-06-01T00:34:57;9.00;;;4.65;;
42110;SDS011;27766;52.174;5.456;2023-06-01T00:37:24;9.98;;;4.53;;
42110;SDS011;27766;52.174;5.456;2023-06-01T00:39:52;6.55;;;3.92;;
42110;SDS011;27766;52.174;5.456;2023-06-01T00:42:19;6.38;;;4.60;;
42110;SDS011;27766;52.174;5.456;2023-06-01T00:44:46;8.45;;;4.43;;
42110;SDS011;27766;52.174;5.456;2023-06-01T00:47:13;6.20;;;4.40;;
42110;SDS011;27766;52.174;5.456;2023-06-01T00:49:42;7.55;;;4.45;;
42110;SDS011;27766;52.174;5.456;2023-06-01T00:52:10;9.60;;;4.78;;
42110;SDS011;27766;52.174;5.456;2023-06-01T00:54:39;7.25;;;5.07;;
42110;SDS011;27766;52.174;5.456;2023-06-01T00:57:07;7.80;;;4.38;;
42110;SDS011;27766;52.174;5.456;2023-06-01T00:59:34;7.57;;;4.07;;
42110;SDS011;27766;52.174;5.456;2023-06-01T01:02:02;11.63;;;4.75;;
42110;SDS011;27766;52.174;5.456;2023-06-01T01:04:31;9.20;;;4.22;;
42110;SDS011;27766;52.174;5.456;2023-06-01T01:07:02;8.45;;;4.68;;
42110;SDS011;27766;52.174;5.456;2023-06-01T01:12:26;8.70;;;5.03;;
42110;SDS011;27766;52.174;5.456;2023-06-01T01:15:05;14.50;;;4.60;;
42110;SDS011;27766;52.174;5.456;2023-06-01T01:17:42;10.02;;;4.88;;
42110;SDS011;27766;52.174;5.456;2023-06-01T01:20:13;7.32;;;4.68;;
42110;SDS011;27766;52.174;5.456;2023-06-01T01:28:32;6.45;;;4.30;;
42110;SDS011;27766;52.174;5.456;2023-06-01T01:31:09;10.00;;;5.32;;
42110;SDS011;27766;52.174;5.456;2023-06-01T01:33:39;6.22;;;4.57;;
42110;SDS011;27766;52.174;5.456;2023-06-01T01:36:09;8.90;;;4.68;;
42110;SDS011;27766;52.174;5.456;2023-06-01T01:38:37;8.73;;;4.72;;
42110;SDS011;27766;52.174;5.456;2023-06-01T01:41:05;10.15;;;5.13;;
42110;SDS011;27766;52.174;5.456;2023-06-01T01:43:32;9.50;;;4.75;;
42110;SDS011;27766;52.174;5.456;2023-06-01T01:46:06;7.57;;;4.75;;
42110;SDS011;27766;52.174;5.456;2023-06-01T01:49:00;7.35;;;4.63;;
42110;SDS011;27766;52.174;5.456;2023-06-01T01:54:12;8.48;;;4.70;;
42110;SDS011;27766;52.174;5.456;2023-06-01T01:56:41;9.38;;;5.53;;
42110;SDS011;27766;52.174;5.456;2023-06-01T01:59:11;6.75;;;4.95;;
42110;SDS011;27766;52.174;5.456;2023-06-01T02:01:40;11.63;;;5.07;;
42110;SDS011;27766;52.174;5.456;2023-06-01T02:04:12;7.82;;;5.22;;
42110;SDS011;27766;52.174;5.456;2023-06-01T02:06:39;13.63;;;5.80;;
42110;SDS011;27766;52.174;5.456;2023-06-01T02:09:06;6.72;;;5.45;;
42110;SDS011;27766;52.174;5.456;2023-06-01T02:11:34;10.73;;;6.07;;
42110;SDS011;27766;52.174;5.456;2023-06-01T02:14:05;8.23;;;5.60;;
42110;SDS011;27766;52.174;5.456;2023-06-01T02:16:32;7.75;;;5.70;;
42110;SDS011;27766;52.174;5.456;2023-06-01T02:19:00;10.10;;;5.25;;
42110;SDS011;27766;52.174;5.456;2023-06-01T02:21:29;7.65;;;5.05;;
42110;SDS011;27766;52.174;5.456;2023-06-01T02:23:57;7.72;;;5.18;;
42110;SDS011;27766;52.174;5.456;2023-06-01T02:28:58;11.82;;;5.53;;
42110;SDS011;27766;52.174;5.456;2023-06-01T02:31:25;9.82;;;5.65;;
42110;SDS011;27766;52.174;5.456;2023-06-01T02:33:53;12.15;;;5.57;;
42110;SDS011;27766;52.174;5.456;2023-06-01T02:36:20;13.32;;;5.95;;
42110;SDS011;27766;52.174;5.456;2023-06-01T02:38:48;9.50;;;5.28;;
42110;SDS011;27766;52.174;5.456;2023-06-01T02:41:15;9.45;;;6.20;;
42110;SDS011;27766;52.174;5.456;2023-06-01T02:43:42;8.77;;;5.93;;
42110;SDS011;27766;52.174;5.456;2023-06-01T02:46:09;10.27;;;5.68;;
42110;SDS011;27766;52.174;5.456;2023-06-01T02:48:36;10.68;;;6.32;;
42110;SDS011;27766;52.174;5.456;2023-06-01T02:51:04;7.82;;;5.40;;
42110;SDS011;27766;52.174;5.456;2023-06-01T02:53:32;10.93;;;6.15;;
42110;SDS011;27766;52.174;5.456;2023-06-01T02:55:59;16.02;;;6.78;;
42110;SDS011;27766;52.174;5.456;2023-06-01T02:58:26;7.93;;;5.93;;
42110;SDS011;27766;52.174;5.456;2023-06-01T03:00:56;8.32;;;5.68;;
42110;SDS011;27766;52.174;5.456;2023-06-01T03:03:24;14.75;;;5.65;;
42110;SDS011;27766;52.174;5.456;2023-06-01T03:05:52;9.82;;;6.60;;
42110;SDS011;27766;52.174;5.456;2023-06-01T03:08:21;7.85;;;5.38;;
42110;SDS011;27766;52.174;5.456;2023-06-01T03:10:51;7.40;;;5.68;;
42110;SDS011;27766;52.174;5.456;2023-06-01T03:13:19;13.23;;;5.30;;
42110;SDS011;27766;52.174;5.456;2023-06-01T03:15:46;14.45;;;5.20;;
42110;SDS011;27766;52.174;5.456;2023-06-01T03:18:13;7.13;;;5.15;;
42110;SDS011;27766;52.174;5.456;2023-06-01T03:20:41;11.32;;;5.80;;
42110;SDS011;27766;52.174;5.456;2023-06-01T03:23:08;16.20;;;6.32;;
42110;SDS011;27766;52.174;5.456;2023-06-01T03:25:35;6.00;;;5.22;;
42110;SDS011;27766;52.174;5.456;2023-06-01T03:28:02;8.15;;;5.68;;
42110;SDS011;27766;52.174;5.456;2023-06-01T03:30:30;10.95;;;5.57;;
42110;SDS011;27766;52.174;5.456;2023-06-01T03:32:57;10.85;;;5.90;;
42110;SDS011;27766;52.174;5.456;2023-06-01T03:35:24;9.63;;;6.00;;
42110;SDS011;27766;52.174;5.456;2023-06-01T03:37:52;12.05;;;6.25;;
42110;SDS011;27766;52.174;5.456;2023-06-01T03:40:19;10.63;;;5.07;;
42110;SDS011;27766;52.174;5.456;2023-06-01T03:42:48;8.88;;;5.95;;
42110;SDS011;27766;52.174;5.456;2023-06-01T03:45:15;11.63;;;6.00;;
42110;SDS011;27766;52.174;5.456;2023-06-01T03:47:43;15.80;;;6.22;;
42110;SDS011;27766;52.174;5.456;2023-06-01T03:50:11;7.88;;;5.72;;
42110;SDS011;27766;52.174;5.456;2023-06-01T03:52:38;9.13;;;6.13;;
42110;SDS011;27766;52.174;5.456;2023-06-01T03:55:06;9.10;;;5.75;;
42110;SDS011;27766;52.174;5.456;2023-06-01T03:57:37;14.65;;;5.93;;
42110;SDS011;27766;52.174;5.456;2023-06-01T04:00:05;8.13;;;5.50;;
42110;SDS011;27766;52.174;5.456;2023-06-01T04:02:50;12.73;;;6.93;;
42110;SDS011;27766;52.174;5.456;2023-06-01T04:05:28;9.82;;;5.38;;
42110;SDS011;27766;52.174;5.456;2023-06-01T04:07:55;9.30;;;5.55;;
42110;SDS011;27766;52.174;5.456;2023-06-01T04:10:23;11.07;;;5.75;;
42110;SDS011;27766;52.174;5.456;2023-06-01T04:12:51;14.15;;;5.80;;
42110;SDS011;27766;52.174;5.456;2023-06-01T04:15:19;10.23;;;5.88;;
42110;SDS011;27766;52.174;5.456;2023-06-01T04:17:46;12.85;;;5.95;;
42110;SDS011;27766;52.174;5.456;2023-06-01T04:20:14;12.75;;;5.45;;
42110;SDS011;27766;52.174;5.456;2023-06-01T04:22:43;10.15;;;5.95;;
42110;SDS011;27766;52.174;5.456;2023-06-01T04:25:13;9.75;;;5.70;;
42110;SDS011;27766;52.174;5.456;2023-06-01T04:27:46;6.78;;;4.88;;
42110;SDS011;27766;52.174;5.456;2023-06-01T04:30:15;7.93;;;5.50;;
42110;SDS011;27766;52.174;5.456;2023-06-01T04:32:44;11.90;;;5.60;;
42110;SDS011;27766;52.174;5.456;2023-06-01T04:35:13;10.45;;;5.43;;
42110;SDS011;27766;52.174;5.456;2023-06-01T04:37:41;9.07;;;4.63;;
42110;SDS011;27766;52.174;5.456;2023-06-01T04:40:09;10.05;;;5.53;;
42110;SDS011;27766;52.174;5.456;2023-06-01T04:42:39;14.05;;;5.75;;
42110;SDS011;27766;52.174;5.456;2023-06-01T04:45:09;10.10;;;5.18;;
42110;SDS011;27766;52.174;5.456;2023-06-01T04:47:37;7.95;;;4.38;;
42110;SDS011;27766;52.174;5.456;2023-06-01T04:50:06;8.65;;;5.38;;
42110;SDS011;27766;52.174;5.456;2023-06-01T04:52:38;17.15;;;5.07;;
42110;SDS011;27766;52.174;5.456;2023-06-01T04:55:07;8.60;;;4.57;;
42110;SDS011;27766;52.174;5.456;2023-06-01T04:57:36;10.27;;;5.90;;
42110;SDS011;27766;52.174;5.456;2023-06-01T05:00:03;14.30;;;5.00;;
42110;SDS011;27766;52.174;5.456;2023-06-01T05:02:35;9.80;;;4.60;;
42110;SDS011;27766;52.174;5.456;2023-06-01T05:05:04;14.95;;;5.20;;
42110;SDS011;27766;52.174;5.456;2023-06-01T05:07:32;7.25;;;4.43;;
42110;SDS011;27766;52.174;5.456;2023-06-01T05:09:59;9.30;;;5.25;;
42110;SDS011;27766;52.174;5.456;2023-06-01T05:12:34;10.65;;;5.53;;
42110;SDS011;27766;52.174;5.456;2023-06-01T05:15:02;9.77;;;5.50;;
42110;SDS011;27766;52.174;5.456;2023-06-01T05:17:31;8.85;;;5.78;;
42110;SDS011;27766;52.174;5.456;2023-06-01T05:19:58;9.25;;;5.20;;
42110;SDS011;27766;52.174;5.456;2023-06-01T05:22:26;10.90;;;5.38;;
42110;SDS011;27766;52.174;5.456;2023-06-01T05:24:53;11.02;;;5.38;;
42110;SDS011;27766;52.174;5.456;2023-06-01T05:27:21;7.57;;;6.00;;
42110;SDS011;27766;52.174;5.456;2023-06-01T05:29:48;7.57;;;5.25;;
42110;SDS011;27766;52.174;5.456;2023-06-01T05:32:15;8.93;;;5.97;;
42110;SDS011;27766;52.174;5.456;2023-06-01T05:34:43;12.23;;;6.88;;
42110;SDS011;27766;52.174;5.456;2023-06-01T05:37:11;10.00;;;6.60;;
42110;SDS011;27766;52.174;5.456;2023-06-01T05:39:38;10.00;;;6.05;;
42110;SDS011;27766;52.174;5.456;2023-06-01T05:42:06;9.85;;;6.07;;
42110;SDS011;27766;52.174;5.456;2023-06-01T05:44:33;12.10;;;6.38;;
42110;SDS011;27766;52.174;5.456;2023-06-01T05:47:00;10.32;;;6.00;;
42110;SDS011;27766;52.174;5.456;2023-06-01T05:49:28;10.95;;;5.78;;
42110;SDS011;27766;52.174;5.456;2023-06-01T05:51:58;11.63;;;5.70;;
42110;SDS011;27766;52.174;5.456;2023-06-01T05:54:25;8.77;;;5.93;;
42110;SDS011;27766;52.174;5.456;2023-06-01T05:56:53;11.52;;;6.18;;
42110;SDS011;27766;52.174;5.456;2023-06-01T05:59:20;9.05;;;6.63;;
42110;SDS011;27766;52.174;5.456;2023-06-01T06:01:47;16.00;;;5.72;;
42110;SDS011;27766;52.174;5.456;2023-06-01T06:04:15;12.15;;;5.78;;
42110;SDS011;27766;52.174;5.456;2023-06-01T06:06:43;10.15;;;5.35;;
42110;SDS011;27766;52.174;5.456;2023-06-01T06:09:11;7.35;;;5.10;;
42110;SDS011;27766;52.174;5.456;2023-06-01T06:11:40;10.55;;;6.18;;
42110;SDS011;27766;52.174;5.456;2023-06-01T06:14:07;11.88;;;5.93;;
42110;SDS011;27766;52.174;5.456;2023-06-01T06:16:36;9.75;;;5.15;;
42110;SDS011;27766;52.174;5.456;2023-06-01T06:19:03;10.23;;;5.75;;
42110;SDS011;27766;52.174;5.456;2023-06-01T06:21:30;10.20;;;5.57;;
42110;SDS011;27766;52.174;5.456;2023-06-01T06:23:58;11.63;;;5.65;;
42110;SDS011;27766;52.174;5.456;2023-06-01T06:26:26;12.43;;;5.68;;
42110;SDS011;27766;52.174;5.456;2023-06-01T06:28:54;11.50;;;5.53;;
42110;SDS011;27766;52.174;5.456;2023-06-01T06:31:22;9.40;;;5.20;;
42110;SDS011;27766;52.174;5.456;2023-06-01T06:33:49;11.35;;;5.00;;
42110;SDS011;27766;52.174;5.456;2023-06-01T06:36:16;12.20;;;5.70;;
42110;SDS011;27766;52.174;5.456;2023-06-01T06:38:44;14.90;;;5.45;;
42110;SDS011;27766;52.174;5.456;2023-06-01T06:41:12;6.82;;;5.20;;
42110;SDS011;27766;52.174;5.456;2023-06-01T06:43:39;8.73;;;5.25;;
42110;SDS011;27766;52.174;5.456;2023-06-01T06:46:06;8.93;;;5.95;;
42110;SDS011;27766;52.174;5.456;2023-06-01T06:48:34;12.77;;;5.82;;
42110;SDS011;27766;52.174;5.456;2023-06-01T06:51:01;7.65;;;4.90;;
42110;SDS011;27766;52.174;5.456;2023-06-01T06:53:30;9.57;;;5.18;;
42110;SDS011;27766;52.174;5.456;2023-06-01T06:55:57;10.80;;;6.25;;
42110;SDS011;27766;52.174;5.456;2023-06-01T06:58:24;15.52;;;5.25;;
42110;SDS011;27766;52.174;5.456;2023-06-01T07:00:51;7.50;;;5.65;;
42110;SDS011;27766;52.174;5.456;2023-06-01T07:03:19;9.85;;;5.97;;
42110;SDS011;27766;52.174;5.456;2023-06-01T07:05:46;12.77;;;5.47;;
42110;SDS011;27766;52.174;5.456;2023-06-01T07:08:14;9.32;;;5.50;;
42110;SDS011;27766;52.174;5.456;2023-06-01T07:10:44;7.88;;;5.30;;
42110;SDS011;27766;52.174;5.456;2023-06-01T07:13:12;8.98;;;5.50;;
42110;SDS011;27766;52.174;5.456;2023-06-01T07:15:41;7.90;;;5.07;;
42110;SDS011;27766;52.174;5.456;2023-06-01T07:18:09;8.40;;;4.30;;
42110;SDS011;27766;52.174;5.456;2023-06-01T07:20:36;12.30;;;4.25;;
42110;SDS011;27766;52.174;5.456;2023-06-01T07:23:03;11.02;;;5.38;;
42110;SDS011;27766;52.174;5.456;2023-06-01T07:25:31;6.63;;;4.40;;
42110;SDS011;27766;52.174;5.456;2023-06-01T07:27:58;11.48;;;4.80;;
42110;SDS011;27766;52.174;5.456;2023-06-01T07:30:27;9.73;;;4.57;;
42110;SDS011;27766;52.174;5.456;2023-06-01T07:32:54;11.90;;;4.78;;
42110;SDS011;27766;52.174;5.456;2023-06-01T07:35:22;7.47;;;4.22;;
42110;SDS011;27766;52.174;5.456;2023-06-01T07:37:49;10.32;;;4.43;;
42110;SDS011;27766;52.174;5.456;2023-06-01T07:40:16;11.05;;;5.43;;
42110;SDS011;27766;52.174;5.456;2023-06-01T07:42:44;7.10;;;4.30;;
42110;SDS011;27766;52.174;5.456;2023-06-01T07:45:12;6.63;;;4.47;;
42110;SDS011;27766;52.174;5.456;2023-06-01T07:47:41;9.38;;;5.03;;
42110;SDS011;27766;52.174;5.456;2023-06-01T07:50:08;8.90;;;4.78;;
42110;SDS011;27766;52.174;5.456;2023-06-01T07:52:36;8.15;;;4.15;;
42110;SDS011;27766;52.174;5.456;2023-06-01T07:55:04;7.20;;;4.55;;
42110;SDS011;27766;52.174;5.456;2023-06-01T07:57:31;12.10;;;4.40;;
42110;SDS011;27766;52.174;5.456;2023-06-01T07:59:58;6.38;;;4.15;;
42110;SDS011;27766;52.174;5.456;2023-06-01T08:02:26;6.15;;;3.80;;
42110;SDS011;27766;52.174;5.456;2023-06-01T08:04:55;10.80;;;3.97;;
42110;SDS011;27766;52.174;5.456;2023-06-01T08:07:23;9.18;;;3.67;;
42110;SDS011;27766;52.174;5.456;2023-06-01T08:09:55;6.68;;;3.97;;
42110;SDS011;27766;52.174;5.456;2023-06-01T08:12:24;4.53;;;3.28;;
42110;SDS011;27766;52.174;5.456;2023-06-01T08:14:53;5.45;;;2.92;;
42110;SDS011;27766;52.174;5.456;2023-06-01T08:17:20;6.20;;;3.70;;
42110;SDS011;27766;52.174;5.456;2023-06-01T08:19:50;6.80;;;4.05;;
42110;SDS011;27766;52.174;5.456;2023-06-01T08:22:19;6.93;;;3.55;;
42110;SDS011;27766;52.174;5.456;2023-06-01T08:24:47;6.03;;;3.35;;
42110;SDS011;27766;52.174;5.456;2023-06-01T08:27:24;4.95;;;3.63;;
42110;SDS011;27766;52.174;5.456;2023-06-01T08:29:52;7.88;;;3.47;;
42110;SDS011;27766;52.174;5.456;2023-06-01T08:32:21;6.07;;;3.75;;
42110;SDS011;27766;52.174;5.456;2023-06-01T08:34:48;9.48;;;4.28;;
42110;SDS011;27766;52.174;5.456;2023-06-01T08:37:16;7.50;;;4.20;;
42110;SDS011;27766;52.174;5.456;2023-06-01T08:39:43;6.32;;;3.20;;
42110;SDS011;27766;52.174;5.456;2023-06-01T08:42:13;9.57;;;3.70;;
42110;SDS011;27766;52.174;5.456;2023-06-01T08:45:03;8.75;;;3.50;;
42110;SDS011;27766;52.174;5.456;2023-06-01T08:47:32;7.15;;;4.05;;
42110;SDS011;27766;52.174;5.456;2023-06-01T08:50:00;7.10;;;3.97;;
42110;SDS011;27766;52.174;5.456;2023-06-01T08:52:28;10.10;;;3.95;;
42110;SDS011;27766;52.174;5.456;2023-06-01T08:54:58;6.90;;;3.63;;
42110;SDS011;27766;52.174;5.456;2023-06-01T08:57:29;6.68;;;3.90;;
42110;SDS011;27766;52.174;5.456;2023-06-01T08:59:57;10.75;;;4.13;;
42110;SDS011;27766;52.174;5.456;2023-06-01T09:02:28;8.88;;;4.45;;
42110;SDS011;27766;52.174;5.456;2023-06-01T09:04:55;10.88;;;3.92;;
42110;SDS011;27766;52.174;5.456;2023-06-01T09:07:22;11.85;;;4.22;;
42110;SDS011;27766;52.174;5.456;2023-06-01T09:09:50;10.70;;;4.70;;
42110;SDS011;27766;52.174;5.456;2023-06-01T09:12:19;4.88;;;3.63;;
42110;SDS011;27766;52.174;5.456;2023-06-01T09:14:47;7.63;;;5.10;;
42110;SDS011;27766;52.174;5.456;2023-06-01T09:17:20;4.97;;;3.78;;
42110;SDS011;27766;52.174;5.456;2023-06-01T09:19:53;5.45;;;3.67;;
42110;SDS011;27766;52.174;5.456;2023-06-01T09:22:24;5.57;;;3.95;;
42110;SDS011;27766;52.174;5.456;2023-06-01T09:25:04;7.40;;;4.20;;
42110;SDS011;27766;52.174;5.456;2023-06-01T09:27:41;5.05;;;3.78;;
42110;SDS011;27766;52.174;5.456;2023-06-01T09:30:20;8.57;;;3.88;;
42110;SDS011;27766;52.174;5.456;2023-06-01T09:32:48;7.20;;;4.30;;
42110;SDS011;27766;52.174;5.456;2023-06-01T09:35:36;6.65;;;4.05;;
42110;SDS011;27766;52.174;5.456;2023-06-01T09:38:04;9.63;;;3.35;;
42110;SDS011;27766;52.174;5.456;2023-06-01T09:40:33;8.75;;;4.57;;
42110;SDS011;27766;52.174;5.456;2023-06-01T09:43:01;6.15;;;3.97;;
42110;SDS011;27766;52.174;5.456;2023-06-01T09:45:30;6.00;;;3.72;;
42110;SDS011;27766;52.174;5.456;2023-06-01T09:48:19;10.50;;;4.03;;
42110;SDS011;27766;52.174;5.456;2023-06-01T09:50:46;10.18;;;4.72;;
42110;SDS011;27766;52.174;5.456;2023-06-01T09:53:13;7.10;;;3.92;;
42110;SDS011;27766;52.174;5.456;2023-06-01T09:55:58;7.60;;;4.65;;
42110;SDS011;27766;52.174;5.456;2023-06-01T09:58:27;5.30;;;3.88;;
42110;SDS011;27766;52.174;5.456;2023-06-01T10:00:55;6.95;;;4.35;;
42110;SDS011;27766;52.174;5.456;2023-06-01T10:03:26;9.13;;;4.38;;
42110;SDS011;27766;52.174;5.456;2023-06-01T10:05:53;10.18;;;4.68;;
42110;SDS011;27766;52.174;5.456;2023-06-01T10:08:21;6.68;;;4.57;;
42110;SDS011;27766;52.174;5.456;2023-06-01T10:10:49;9.18;;;4.10;;
42110;SDS011;27766;52.174;5.456;2023-06-01T10:13:17;6.85;;;4.32;;
42110;SDS011;27766;52.174;5.456;2023-06-01T10:15:44;7.65;;;4.28;;
42110;SDS011;27766;52.174;5.456;2023-06-01T10:18:12;10.40;;;4.72;;
42110;SDS011;27766;52.174;5.456;2023-06-01T10:20:41;7.00;;;4.10;;
42110;SDS011;27766;52.174;5.456;2023-06-01T10:23:08;5.82;;;4.18;;
42110;SDS011;27766;52.174;5.456;2023-06-01T10:25:52;9.02;;;4.85;;
42110;SDS011;27766;52.174;5.456;2023-06-01T10:28:20;10.93;;;4.78;;
42110;SDS011;27766;52.174;5.456;2023-06-01T10:31:24;7.30;;;4.32;;
42110;SDS011;27766;52.174;5.456;2023-06-01T10:33:54;7.82;;;4.03;;
42110;SDS011;27766;52.174;5.456;2023-06-01T10:36:22;10.75;;;3.95;;
42110;SDS011;27766;52.174;5.456;2023-06-01T10:38:49;10.27;;;4.75;;
42110;SDS011;27766;52.174;5.456;2023-06-01T10:41:29;5.95;;;3.70;;
42110;SDS011;27766;52.174;5.456;2023-06-01T10:43:58;7.25;;;2.85;;
42110;SDS011;27766;52.174;5.456;2023-06-01T10:46:38;9.57;;;3.10;;
42110;SDS011;27766;52.174;5.456;2023-06-01T10:49:11;5.45;;;2.92;;
42110;SDS011;27766;52.174;5.456;2023-06-01T10:51:39;5.78;;;2.80;;
42110;SDS011;27766;52.174;5.456;2023-06-01T11:02:47;4.72;;;2.63;;
42110;SDS011;27766;52.174;5.456;2023-06-01T11:08:08;5.57;;;2.13;;
42110;SDS011;27766;52.174;5.456;2023-06-01T11:10:57;4.97;;;2.78;;
42110;SDS011;27766;52.174;5.456;2023-06-01T11:13:34;7.63;;;2.40;;
42110;SDS011;27766;52.174;5.456;2023-06-01T11:18:42;5.75;;;3.47;;
42110;SDS011;27766;52.174;5.456;2023-06-01T11:21:17;6.90;;;2.60;;
42110;SDS011;27766;52.174;5.456;2023-06-01T11:23:48;6.63;;;2.80;;
42110;SDS011;27766;52.174;5.456;2023-06-01T11:26:17;7.15;;;2.85;;
42110;SDS011;27766;52.174;5.456;2023-06-01T11:28:48;5.30;;;3.00;;
42110;SDS011;27766;52.174;5.456;2023-06-01T11:31:15;7.18;;;3.10;;
42110;SDS011;27766;52.174;5.456;2023-06-01T11:33:51;5.95;;;2.88;;
42110;SDS011;27766;52.174;5.456;2023-06-01T11:36:21;4.97;;;2.63;;
42110;SDS011;27766;52.174;5.456;2023-06-01T11:38:51;3.85;;;2.92;;
42110;SDS011;27766;52.174;5.456;2023-06-01T11:41:21;7.78;;;3.08;;
42110;SDS011;27766;52.174;5.456;2023-06-01T11:43:54;5.63;;;3.03;;
42110;SDS011;27766;52.174;5.456;2023-06-01T11:46:24;3.78;;;2.08;;
42110;SDS011;27766;52.174;5.456;2023-06-01T11:49:01;5.35;;;2.55;;
42110;SDS011;27766;52.174;5.456;2023-06-01T11:51:36;6.93;;;2.25;;
42110;SDS011;27766;52.174;5.456;2023-06-01T11:54:09;2.67;;;1.95;;
42110;SDS011;27766;52.174;5.456;2023-06-01T11:56:37;5.15;;;2.83;;
42110;SDS011;27766;52.174;5.456;2023-06-01T11:59:06;3.35;;;2.28;;
42110;SDS011;27766;52.174;5.456;2023-06-01T12:01:41;8.35;;;2.85;;
42110;SDS011;27766;52.174;5.456;2023-06-01T12:04:17;3.75;;;2.55;;
42110;SDS011;27766;52.174;5.456;2023-06-01T12:06:47;4.57;;;2.75;;
42110;SDS011;27766;52.174;5.456;2023-06-01T12:09:16;5.57;;;2.88;;
42110;SDS011;27766;52.174;5.456;2023-06-01T12:11:43;5.00;;;2.60;;
42110;SDS011;27766;52.174;5.456;2023-06-01T12:14:12;4.32;;;2.47;;
42110;SDS011;27766;52.174;5.456;2023-06-01T12:19:21;4.90;;;2.17;;
42110;SDS011;27766;52.174;5.456;2023-06-01T12:21:49;3.85;;;2.10;;
42110;SDS011;27766;52.174;5.456;2023-06-01T12:24:18;6.93;;;2.85;;
42110;SDS011;27766;52.174;5.456;2023-06-01T12:26:53;6.25;;;2.55;;
42110;SDS011;27766;52.174;5.456;2023-06-01T12:29:34;6.18;;;3.13;;
42110;SDS011;27766;52.174;5.456;2023-06-01T12:32:05;7.85;;;2.72;;
42110;SDS011;27766;52.174;5.456;2023-06-01T12:34:33;4.55;;;2.60;;
42110;SDS011;27766;52.174;5.456;2023-06-01T12:37:15;4.70;;;3.03;;
42110;SDS011;27766;52.174;5.456;2023-06-01T12:39:53;5.72;;;3.05;;
42110;SDS011;27766;52.174;5.456;2023-06-01T12:42:38;5.85;;;3.15;;
42110;SDS011;27766;52.174;5.456;2023-06-01T12:45:07;7.22;;;3.50;;
42110;SDS011;27766;52.174;5.456;2023-06-01T12:47:38;6.15;;;2.75;;
42110;SDS011;27766;52.174;5.456;2023-06-01T12:50:07;8.25;;;2.70;;
42110;SDS011;27766;52.174;5.456;2023-06-01T12:52:37;5.00;;;2.90;;
42110;SDS011;27766;52.174;5.456;2023-06-01T12:55:05;5.55;;;3.10;;
42110;SDS011;27766;52.174;5.456;2023-06-01T12:57:35;5.05;;;3.15;;
42110;SDS011;27766;52.174;5.456;2023-06-01T13:00:03;5.43;;;2.97;;
42110;SDS011;27766;52.174;5.456;2023-06-01T13:02:32;3.63;;;2.25;;
42110;SDS011;27766;52.174;5.456;2023-06-01T13:05:00;5.18;;;2.75;;
42110;SDS011;27766;52.174;5.456;2023-06-01T13:07:28;5.82;;;2.58;;
42110;SDS011;27766;52.174;5.456;2023-06-01T13:09:55;3.70;;;2.00;;
42110;SDS011;27766;52.174;5.456;2023-06-01T13:12:24;3.13;;;2.00;;
42110;SDS011;27766;52.174;5.456;2023-06-01T13:14:52;4.25;;;2.53;;
42110;SDS011;27766;52.174;5.456;2023-06-01T13:17:19;4.15;;;2.70;;
42110;SDS011;27766;52.174;5.456;2023-06-01T13:19:46;6.85;;;2.58;;
42110;SDS011;27766;52.174;5.456;2023-06-01T13:22:14;5.15;;;1.98;;
42110;SDS011;27766;52.174;5.456;2023-06-01T13:24:42;8.55;;;2.38;;
42110;SDS011;27766;52.174;5.456;2023-06-01T13:27:13;12.38;;;2.88;;
42110;SDS011;27766;52.174;5.456;2023-06-01T13:29:41;2.70;;;2.00;;
42110;SDS011;27766;52.174;5.456;2023-06-01T13:32:09;4.30;;;1.85;;
42110;SDS011;27766;52.174;5.456;2023-06-01T13:34:36;4.90;;;2.88;;
42110;SDS011;27766;52.174;5.456;2023-06-01T13:37:03;3.42;;;1.90;;
42110;SDS011;27766;52.174;5.456;2023-06-01T13:39:31;2.92;;;1.73;;
42110;SDS011;27766;52.174;5.456;2023-06-01T13:41:58;3.22;;;1.48;;
42110;SDS011;27766;52.174;5.456;2023-06-01T13:44:25;2.00;;;1.58;;
42110;SDS011;27766;52.174;5.456;2023-06-01T13:46:53;10.38;;;2.58;;
42110;SDS011;27766;52.174;5.456;2023-06-01T13:49:20;3.05;;;1.73;;
42110;SDS011;27766;52.174;5.456;2023-06-01T13:51:47;2.50;;;1.70;;
42110;SDS011;27766;52.174;5.456;2023-06-01T13:54:16;1.92;;;1.38;;
42110;SDS011;27766;52.174;5.456;2023-06-01T13:56:43;2.75;;;1.25;;
42110;SDS011;27766;52.174;5.456;2023-06-01T13:59:11;3.70;;;1.52;;
42110;SDS011;27766;52.174;5.456;2023-06-01T14:01:38;1.60;;;1.13;;
42110;SDS011;27766;52.174;5.456;2023-06-01T14:04:06;5.63;;;2.92;;
42110;SDS011;27766;52.174;5.456;2023-06-01T14:06:34;3.10;;;1.92;;
42110;SDS011;27766;52.174;5.456;2023-06-01T14:09:01;5.40;;;2.55;;
42110;SDS011;27766;52.174;5.456;2023-06-01T14:11:28;6.05;;;2.45;;
42110;SDS011;27766;52.174;5.456;2023-06-01T14:13:57;8.25;;;1.52;;
42110;SDS011;27766;52.174;5.456;2023-06-01T14:16:24;3.65;;;2.10;;
42110;SDS011;27766;52.174;5.456;2023-06-01T14:18:51;2.70;;;1.58;;
42110;SDS011;27766;52.174;5.456;2023-06-01T14:21:18;2.22;;;1.27;;
42110;SDS011;27766;52.174;5.456;2023-06-01T14:23:46;1.42;;;1.00;;
42110;SDS011;27766;52.174;5.456;2023-06-01T14:26:14;1.88;;;1.20;;
42110;SDS011;27766;52.174;5.456;2023-06-01T14:28:41;2.50;;;1.38;;
42110;SDS011;27766;52.174;5.456;2023-06-01T14:31:08;3.33;;;1.48;;
42110;SDS011;27766;52.174;5.456;2023-06-01T14:33:35;5.78;;;1.38;;
42110;SDS011;27766;52.174;5.456;2023-06-01T14:36:03;3.90;;;1.67;;
42110;SDS011;27766;52.174;5.456;2023-06-01T14:38:33;2.38;;;2.10;;
42110;SDS011;27766;52.174;5.456;2023-06-01T14:41:00;5.57;;;1.90;;
42110;SDS011;27766;52.174;5.456;2023-06-01T14:43:28;2.20;;;1.73;;
42110;SDS011;27766;52.174;5.456;2023-06-01T14:45:57;2.20;;;1.40;;
42110;SDS011;27766;52.174;5.456;2023-06-01T14:48:24;2.47;;;1.25;;
42110;SDS011;27766;52.174;5.456;2023-06-01T14:50:51;3.08;;;1.67;;
42110;SDS011;27766;52.174;5.456;2023-06-01T14:53:19;3.42;;;1.60;;
42110;SDS011;27766;52.174;5.456;2023-06-01T14:55:48;2.35;;;1.38;;
42110;SDS011;27766;52.174;5.456;2023-06-01T14:58:15;5.13;;;1.70;;
42110;SDS011;27766;52.174;5.456;2023-06-01T15:00:43;4.72;;;1.40;;
42110;SDS011;27766;52.174;5.456;2023-06-01T15:03:10;1.77;;;1.35;;
42110;SDS011;27766;52.174;5.456;2023-06-01T15:05:38;2.15;;;1.30;;
42110;SDS011;27766;52.174;5.456;2023-06-01T15:08:05;8.95;;;2.05;;
42110;SDS011;27766;52.174;5.456;2023-06-01T15:10:34;4.68;;;1.70;;
42110;SDS011;27766;52.174;5.456;2023-06-01T15:13:01;5.70;;;1.83;;
42110;SDS011;27766;52.174;5.456;2023-06-01T15:15:28;2.10;;;1.27;;
42110;SDS011;27766;52.174;5.456;2023-06-01T15:17:56;3.58;;;1.90;;
42110;SDS011;27766;52.174;5.456;2023-06-01T15:20:23;3.78;;;1.98;;
42110;SDS011;27766;52.174;5.456;2023-06-01T15:22:51;1.50;;;1.40;;
42110;SDS011;27766;52.174;5.456;2023-06-01T15:25:18;3.35;;;2.00;;